createdAt,value
2023-01-09T00:02:13.250Z,8.77
2023-01-09T00:04:46.071Z,8.79
2023-01-09T00:07:18.728Z,8.80
2023-01-09T00:09:51.260Z,8.81
2023-01-09T00:12:23.765Z,8.80
2023-01-09T00:14:56.388Z,8.80
2023-01-09T00:17:29.420Z,8.73
2023-01-09T00:20:01.854Z,8.73
2023-01-09T00:22:34.485Z,8.75
2023-01-09T00:25:07.756Z,8.71
2023-01-09T00:27:40.152Z,8.71
2023-01-09T00:30:15.420Z,8.58
2023-01-09T00:32:47.846Z,8.66
2023-01-09T00:35:21.125Z,8.60
2023-01-09T00:37:54.028Z,8.58
2023-01-09T00:40:26.611Z,8.55
2023-01-09T00:42:59.455Z,8.51
2023-01-09T00:45:33.293Z,8.47
2023-01-09T00:48:09.571Z,8.45
2023-01-09T00:50:42.014Z,8.42
2023-01-09T00:53:18.477Z,8.37
2023-01-09T00:55:56.253Z,8.32
2023-01-09T00:58:28.872Z,8.29
2023-01-09T01:01:01.564Z,8.27
2023-01-09T01:03:33.929Z,8.24
2023-01-09T01:06:24.099Z,8.22
2023-01-09T01:08:56.988Z,8.18
2023-01-09T01:11:29.373Z,8.16
2023-01-09T01:14:02.655Z,8.14
2023-01-09T01:16:35.596Z,8.12
2023-01-09T01:19:07.934Z,8.09
2023-01-09T01:21:41.286Z,8.07
2023-01-09T01:24:13.801Z,8.03
2023-01-09T01:26:46.434Z,7.92
2023-01-09T01:29:19.200Z,7.99
2023-01-09T01:31:52.799Z,7.95
2023-01-09T01:34:25.309Z,7.94
2023-01-09T01:36:57.773Z,7.79
2023-01-09T01:39:30.442Z,7.94
2023-01-09T01:42:04.459Z,7.94
2023-01-09T01:45:10.412Z,7.95
2023-01-09T01:47:43.609Z,7.96
2023-01-09T01:50:22.498Z,7.98
2023-01-09T01:52:59.385Z,7.96
2023-01-09T01:55:31.902Z,7.95
2023-01-09T01:58:06.768Z,7.94
2023-01-09T02:00:43.199Z,7.91
2023-01-09T02:03:19.561Z,7.88
2023-01-09T02:05:53.014Z,7.88
2023-01-09T02:08:25.693Z,7.86
2023-01-09T02:10:58.907Z,7.84
2023-01-09T02:13:33.830Z,7.83
2023-01-09T02:16:13.173Z,7.83
2023-01-09T02:18:52.502Z,7.80
2023-01-09T02:21:42.726Z,7.80
2023-01-09T02:24:41.316Z,7.78
2023-01-09T02:27:58.923Z,7.76
2023-01-09T02:30:39.448Z,7.74
2023-01-09T02:33:42.698Z,7.72
2023-01-09T02:36:23.874Z,7.70
2023-01-09T02:39:13.037Z,7.69
2023-01-09T02:42:04.236Z,7.65
2023-01-09T02:44:37.746Z,7.66
2023-01-09T02:47:24.403Z,7.65
2023-01-09T02:50:00.605Z,7.65
2023-01-09T02:52:57.067Z,7.64
2023-01-09T02:55:42.576Z,7.63
2023-01-09T02:58:26.868Z,7.52
2023-01-09T03:01:13.441Z,7.51
2023-01-09T03:03:54.328Z,7.60
2023-01-09T03:06:35.834Z,7.63
2023-01-09T03:09:13.705Z,7.60
2023-01-09T03:11:54.205Z,7.58
2023-01-09T03:14:34.225Z,7.58
2023-01-09T03:17:11.565Z,7.58
2023-01-09T03:19:46.591Z,7.57
2023-01-09T03:22:19.431Z,7.54
2023-01-09T03:24:51.886Z,7.55
2023-01-09T03:27:24.396Z,7.53
2023-01-09T03:29:58.032Z,7.52
2023-01-09T03:32:30.770Z,7.48
2023-01-09T03:35:03.293Z,7.48
2023-01-09T03:37:35.889Z,7.37
2023-01-09T03:40:11.263Z,7.47
2023-01-09T03:42:44.227Z,7.45
2023-01-09T03:45:18.075Z,7.44
2023-01-09T03:47:52.811Z,7.39
2023-01-09T03:50:25.393Z,7.41
2023-01-09T03:52:57.817Z,7.40
2023-01-09T03:55:30.204Z,7.40
2023-01-09T03:58:02.579Z,7.39
2023-01-09T04:00:35.049Z,7.38
2023-01-09T04:03:07.498Z,7.37
2023-01-09T04:05:40.202Z,7.36
2023-01-09T04:08:12.833Z,7.35
2023-01-09T04:10:47.757Z,7.33
2023-01-09T04:13:21.206Z,7.31
2023-01-09T04:15:54.069Z,7.29
2023-01-09T04:18:27.096Z,7.27
2023-01-09T04:20:59.643Z,7.30
2023-01-09T04:23:32.190Z,7.30
2023-01-09T04:26:04.684Z,7.30
2023-01-09T04:28:37.074Z,7.30
2023-01-09T04:31:10.594Z,7.27
2023-01-09T04:33:42.992Z,7.25
2023-01-09T04:36:15.468Z,7.22
2023-01-09T04:38:47.963Z,7.21
2023-01-09T04:41:34.479Z,7.10
2023-01-09T04:44:07.796Z,7.20
2023-01-09T04:46:42.662Z,7.22
2023-01-09T04:49:15.274Z,7.22
2023-01-09T04:51:48.289Z,7.24
2023-01-09T04:54:20.953Z,7.23
2023-01-09T04:56:53.387Z,7.22
2023-01-09T04:59:25.975Z,7.22
2023-01-09T05:01:59.729Z,7.23
2023-01-09T05:04:32.315Z,7.22
2023-01-09T05:07:05.145Z,7.20
2023-01-09T05:09:37.656Z,7.21
2023-01-09T05:12:10.995Z,7.23
2023-01-09T05:14:43.761Z,7.21
2023-01-09T05:17:16.242Z,7.21
2023-01-09T05:19:49.680Z,7.23
2023-01-09T05:22:22.840Z,7.23
2023-01-09T05:24:55.353Z,7.21
2023-01-09T05:27:28.409Z,7.20
2023-01-09T05:30:01.129Z,7.20
2023-01-09T05:32:33.496Z,7.18
2023-01-09T05:35:06.554Z,7.19
2023-01-09T05:37:38.937Z,7.19
2023-01-09T05:40:13.665Z,7.19
2023-01-09T05:42:46.912Z,7.19
2023-01-09T05:45:19.648Z,7.19
2023-01-09T05:47:52.057Z,7.18
2023-01-09T05:50:24.497Z,7.17
2023-01-09T05:52:56.976Z,7.18
2023-01-09T05:55:29.441Z,7.17
2023-01-09T05:58:02.074Z,7.12
2023-01-09T06:00:34.435Z,7.09
2023-01-09T06:03:06.944Z,7.11
2023-01-09T06:05:39.538Z,7.17
2023-01-09T06:08:12.136Z,7.04
2023-01-09T06:10:44.505Z,7.00
2023-01-09T06:13:17.279Z,7.10
2023-01-09T06:15:50.332Z,7.05
2023-01-09T06:18:23.104Z,7.05
2023-01-09T06:20:55.819Z,7.07
2023-01-09T06:23:28.332Z,7.06
2023-01-09T06:26:00.904Z,7.08
2023-01-09T06:28:33.684Z,6.97
2023-01-09T06:31:06.607Z,7.05
2023-01-09T06:33:39.648Z,7.01
2023-01-09T06:36:12.956Z,7.08
2023-01-09T06:38:45.468Z,6.97
2023-01-09T06:41:20.470Z,6.99
2023-01-09T06:43:53.357Z,6.96
2023-01-09T06:46:26.246Z,6.97
2023-01-09T06:48:59.174Z,6.99
2023-01-09T06:51:32.133Z,7.00
2023-01-09T06:54:06.105Z,6.99
2023-01-09T06:56:38.902Z,6.99
2023-01-09T06:59:11.734Z,7.01
2023-01-09T07:01:44.175Z,7.01
2023-01-09T07:04:17.849Z,7.03
2023-01-09T07:06:52.007Z,7.06
2023-01-09T07:09:24.442Z,7.06
2023-01-09T07:11:57.390Z,7.06
2023-01-09T07:14:30.001Z,7.08
2023-01-09T07:17:03.041Z,7.06
2023-01-09T07:19:35.592Z,7.12
2023-01-09T07:22:07.870Z,7.11
2023-01-09T07:24:40.446Z,7.03
2023-01-09T07:27:13.067Z,7.05
2023-01-09T07:29:45.451Z,7.15
2023-01-09T07:32:17.935Z,7.18
2023-01-09T07:34:51.632Z,7.17
2023-01-09T07:37:24.237Z,7.08
2023-01-09T07:39:56.608Z,7.21
2023-01-09T07:42:29.306Z,7.19
2023-01-09T07:45:01.853Z,7.19
2023-01-09T07:47:34.683Z,7.23
2023-01-09T07:50:08.450Z,7.27
2023-01-09T07:52:40.841Z,7.32
2023-01-09T07:55:16.084Z,7.31
2023-01-09T07:57:52.999Z,7.29
2023-01-09T08:00:25.776Z,7.28
2023-01-09T08:02:58.174Z,7.31
2023-01-09T08:05:30.848Z,7.37
2023-01-09T08:08:03.631Z,7.32
2023-01-09T08:10:36.029Z,7.36
2023-01-09T08:13:08.440Z,7.34
2023-01-09T08:15:40.977Z,7.38
2023-01-09T08:18:14.161Z,7.36
2023-01-09T08:20:49.058Z,7.41
2023-01-09T08:23:21.526Z,7.43
2023-01-09T08:25:55.413Z,7.46
2023-01-09T08:28:28.535Z,7.47
2023-01-09T08:31:01.129Z,7.38
2023-01-09T08:33:33.632Z,7.51
2023-01-09T08:36:06.565Z,7.53
2023-01-09T08:38:39.045Z,7.54
2023-01-09T08:41:29.124Z,7.54
2023-01-09T08:44:18.952Z,7.35
2023-01-09T08:47:06.721Z,7.59
2023-01-09T08:49:41.311Z,7.60
2023-01-09T08:52:14.660Z,7.64
2023-01-09T08:54:47.022Z,7.65
2023-01-09T08:57:19.656Z,7.66
2023-01-09T08:59:52.141Z,7.66
2023-01-09T09:02:24.789Z,7.71
2023-01-09T09:04:57.953Z,7.72
2023-01-09T09:07:30.500Z,7.72
2023-01-09T09:10:02.938Z,7.76
2023-01-09T09:12:35.600Z,7.78
2023-01-09T09:15:23.567Z,7.80
2023-01-09T09:17:57.917Z,7.81
2023-01-09T09:20:32.302Z,7.82
2023-01-09T09:23:05.722Z,7.83
2023-01-09T09:25:39.450Z,7.86
2023-01-09T09:28:12.723Z,7.88
2023-01-09T09:30:45.335Z,7.89
2023-01-09T09:33:17.863Z,7.89
2023-01-09T09:35:50.318Z,7.91
2023-01-09T09:38:22.962Z,7.93
2023-01-09T09:41:31.290Z,7.92
2023-01-09T09:44:38.735Z,7.92
2023-01-09T09:47:23.785Z,7.91
2023-01-09T09:50:07.678Z,7.91
2023-01-09T09:52:51.017Z,7.93
2023-01-09T09:55:30.631Z,7.94
2023-01-09T09:58:05.787Z,7.95
2023-01-09T10:00:38.527Z,7.96
2023-01-09T10:03:23.254Z,7.97
2023-01-09T10:06:01.911Z,7.87
2023-01-09T10:08:45.861Z,8.01
2023-01-09T10:11:25.887Z,8.01
2023-01-09T10:14:22.822Z,8.00
2023-01-09T10:17:07.954Z,7.99
2023-01-09T10:19:55.773Z,8.02
2023-01-09T10:22:38.601Z,7.99
2023-01-09T10:25:22.773Z,7.86
2023-01-09T10:28:09.409Z,7.98
2023-01-09T10:30:48.272Z,8.02
2023-01-09T10:33:47.050Z,8.01
2023-01-09T10:36:40.972Z,8.06
2023-01-09T10:39:22.337Z,8.02
2023-01-09T10:42:00.865Z,8.03
2023-01-09T10:44:38.885Z,8.07
2023-01-09T10:47:16.969Z,8.06
2023-01-09T10:49:52.223Z,8.08
2023-01-09T10:52:31.361Z,8.12
2023-01-09T10:55:19.341Z,8.12
2023-01-09T10:57:56.039Z,8.16
2023-01-09T11:00:28.949Z,8.18
2023-01-09T11:03:01.360Z,8.22
2023-01-09T11:05:34.240Z,8.26
2023-01-09T11:08:12.677Z,8.27
2023-01-09T11:10:59.303Z,8.31
2023-01-09T11:13:33.807Z,8.33
2023-01-09T11:16:21.285Z,8.33
2023-01-09T11:18:55.764Z,8.33
2023-01-09T11:21:35.763Z,8.35
2023-01-09T11:24:31.626Z,8.37
2023-01-09T11:27:33.461Z,8.41
2023-01-09T11:30:20.071Z,8.41
2023-01-09T11:32:52.709Z,8.44
2023-01-09T11:35:28.451Z,8.47
2023-01-09T11:38:09.462Z,8.37
2023-01-09T11:40:50.730Z,8.48
2023-01-09T11:43:30.925Z,8.52
2023-01-09T11:46:05.887Z,8.52
2023-01-09T11:48:54.834Z,8.53
2023-01-09T11:51:29.476Z,8.55
2023-01-09T11:54:19.234Z,8.47
2023-01-09T11:56:52.451Z,8.58
2023-01-09T11:59:28.991Z,8.58
2023-01-09T12:02:28.376Z,8.61
2023-01-09T12:05:07.891Z,8.52
2023-01-09T12:08:07.996Z,8.64
2023-01-09T12:11:00.834Z,8.66
2023-01-09T12:13:51.830Z,8.54
2023-01-09T12:16:34.327Z,8.57
2023-01-09T12:19:24.421Z,8.69
2023-01-09T12:22:07.672Z,8.72
2023-01-09T12:24:58.871Z,8.75
2023-01-09T12:27:49.061Z,8.76
2023-01-09T12:30:35.921Z,8.76
2023-01-09T12:33:24.023Z,8.79
2023-01-09T12:36:03.093Z,8.81
2023-01-09T12:38:48.724Z,8.83
2023-01-09T12:41:43.967Z,8.83
2023-01-09T12:44:36.445Z,8.83
2023-01-09T12:47:40.110Z,8.83
2023-01-09T12:50:29.389Z,8.87
2023-01-09T12:53:10.452Z,8.90
2023-01-09T12:55:47.629Z,8.94
2023-01-09T12:58:33.438Z,8.92
2023-01-09T13:01:12.700Z,8.92
2023-01-09T13:03:50.652Z,8.92
2023-01-09T13:06:25.850Z,8.96
2023-01-09T13:09:12.649Z,8.97
2023-01-09T13:11:50.255Z,8.98
2023-01-09T13:14:28.505Z,8.99
2023-01-09T13:17:06.173Z,8.97
2023-01-09T13:19:40.804Z,9.00
2023-01-09T13:22:15.528Z,8.90
2023-01-09T13:25:03.274Z,9.00
2023-01-09T13:27:40.713Z,8.98
2023-01-09T13:30:27.128Z,8.98
2023-01-09T13:33:15.751Z,8.99
2023-01-09T13:35:54.352Z,8.98
2023-01-09T13:38:30.701Z,8.96
2023-01-09T13:41:30.142Z,9.02
2023-01-09T13:44:04.556Z,9.01
2023-01-09T13:46:43.611Z,9.01
2023-01-09T13:49:55.503Z,9.02
2023-01-09T13:52:39.276Z,8.97
2023-01-09T13:55:26.883Z,8.98
2023-01-09T13:58:19.091Z,8.99
2023-01-09T14:00:57.208Z,8.86
2023-01-09T14:03:33.366Z,8.96
2023-01-09T14:06:19.159Z,8.95
2023-01-09T14:09:09.676Z,8.83
2023-01-09T14:11:42.347Z,8.90
2023-01-09T14:14:33.300Z,8.72
2023-01-09T14:17:19.763Z,8.76
2023-01-09T14:19:58.754Z,8.78
2023-01-09T14:22:45.409Z,8.79
2023-01-09T14:25:30.929Z,8.86
2023-01-09T14:28:22.783Z,8.85
2023-01-09T14:31:27.452Z,8.88
2023-01-09T14:34:31.056Z,8.83
2023-01-09T14:37:05.769Z,8.87
2023-01-09T14:39:41.633Z,8.90
2023-01-09T14:42:22.889Z,8.77
2023-01-09T14:45:00.991Z,8.77
2023-01-09T14:47:41.296Z,8.85
2023-01-09T14:50:23.077Z,8.77
2023-01-09T14:53:01.339Z,8.79
2023-01-09T14:55:44.926Z,8.79
2023-01-09T14:58:27.645Z,8.68
2023-01-09T15:01:04.211Z,8.60
2023-01-09T15:03:42.037Z,8.54
2023-01-09T15:06:19.719Z,8.56
2023-01-09T15:08:57.776Z,8.75
2023-01-09T15:11:32.052Z,8.78
2023-01-09T15:14:05.380Z,8.82
2023-01-09T15:16:38.184Z,8.77
2023-01-09T15:19:14.852Z,8.75
2023-01-09T15:22:00.318Z,8.72
2023-01-09T15:24:34.760Z,8.70
2023-01-09T15:27:15.418Z,8.69
2023-01-09T15:29:47.922Z,8.78
2023-01-09T15:32:24.312Z,8.84
2023-01-09T15:34:58.126Z,8.74
2023-01-09T15:37:34.940Z,8.85
2023-01-09T15:40:21.746Z,8.89
2023-01-09T15:42:58.270Z,8.88
2023-01-09T15:45:34.037Z,8.90
2023-01-09T15:48:24.855Z,8.87
2023-01-09T15:51:02.877Z,8.90
2023-01-09T15:53:36.346Z,8.91
2023-01-09T15:56:19.688Z,8.91
2023-01-09T15:58:53.397Z,8.73
2023-01-09T16:01:31.719Z,8.84
2023-01-09T16:04:11.040Z,8.89
2023-01-09T16:06:49.297Z,8.87
2023-01-09T16:09:28.558Z,8.89
2023-01-09T16:12:04.458Z,8.91
2023-01-09T16:14:39.431Z,8.74
2023-01-09T16:17:18.936Z,8.65
2023-01-09T16:19:54.103Z,8.60
2023-01-09T16:22:39.698Z,8.61
2023-01-09T16:28:22.618Z,8.75
2023-01-09T16:30:58.455Z,8.64
2023-01-09T16:33:33.073Z,8.67
2023-01-09T16:36:06.432Z,8.68
2023-01-09T16:38:38.983Z,8.71
2023-01-09T16:41:34.593Z,8.67
2023-01-09T16:44:09.643Z,8.68
2023-01-09T16:46:44.931Z,8.83
2023-01-09T16:49:23.465Z,8.86
2023-01-09T16:51:57.245Z,8.92
2023-01-09T16:54:35.229Z,8.79
2023-01-09T16:57:26.558Z,8.92
2023-01-09T17:00:16.551Z,9.01
2023-01-09T17:03:14.709Z,9.01
2023-01-09T17:05:59.550Z,9.04
2023-01-09T17:08:55.821Z,8.98
2023-01-09T17:11:56.553Z,9.02
2023-01-09T17:15:22.733Z,9.07
2023-01-09T17:18:51.010Z,9.03
2023-01-09T17:21:33.866Z,9.02
2023-01-09T17:24:35.066Z,9.00
2023-01-09T17:27:37.450Z,8.99
2023-01-09T17:30:18.825Z,9.02
2023-01-09T17:32:52.096Z,8.94
2023-01-09T17:35:24.687Z,8.87
2023-01-09T17:38:03.792Z,8.61
2023-01-09T17:40:36.403Z,8.61
2023-01-09T17:43:08.990Z,8.58
2023-01-09T17:45:43.271Z,8.62
2023-01-09T17:48:23.470Z,8.49
2023-01-09T17:50:56.386Z,8.57
2023-01-09T17:53:30.068Z,8.47
2023-01-09T17:56:03.396Z,8.33
2023-01-09T17:58:35.878Z,8.50
2023-01-09T18:01:08.575Z,8.44
2023-01-09T18:03:41.764Z,8.49
2023-01-09T18:06:24.136Z,8.59
2023-01-09T18:08:58.215Z,8.57
2023-01-09T18:11:38.215Z,8.44
2023-01-09T18:17:23.643Z,8.53
2023-01-09T18:19:56.030Z,8.47
2023-01-09T18:22:28.560Z,8.57
2023-01-09T18:25:01.605Z,8.57
2023-01-09T18:27:36.665Z,8.49
2023-01-09T18:30:11.358Z,8.47
2023-01-09T18:32:44.698Z,8.47
2023-01-09T18:35:20.242Z,8.47
2023-01-09T18:37:52.983Z,8.41
2023-01-09T18:40:27.295Z,8.34
2023-01-09T18:43:05.169Z,8.24
2023-01-09T18:45:40.520Z,8.20
2023-01-09T18:48:14.602Z,8.31
2023-01-09T18:50:47.464Z,8.29
2023-01-09T18:53:19.897Z,8.30
2023-01-09T18:55:54.635Z,8.26
2023-01-09T18:58:28.177Z,8.25
2023-01-09T19:01:00.980Z,8.23
2023-01-09T19:04:36.652Z,8.18
2023-01-09T19:07:13.983Z,8.14
2023-01-09T19:09:49.211Z,8.20
2023-01-09T19:12:24.795Z,8.10
2023-01-09T19:14:57.287Z,8.11
2023-01-09T19:17:36.913Z,8.10
2023-01-09T19:20:17.697Z,8.00
2023-01-09T19:22:50.203Z,7.84
2023-01-09T19:25:22.621Z,7.85
2023-01-09T19:28:00.375Z,7.89
2023-01-09T19:30:34.906Z,7.77
2023-01-09T19:33:08.065Z,7.87
2023-01-09T19:35:45.087Z,7.93
2023-01-09T19:38:17.506Z,7.98
2023-01-09T19:40:50.095Z,8.02
2023-01-09T19:43:29.479Z,8.01
2023-01-09T19:46:02.392Z,8.05
2023-01-09T19:48:35.685Z,8.05
2023-01-09T19:51:10.833Z,8.05
2023-01-09T19:53:43.547Z,8.01
2023-01-09T19:56:17.941Z,7.82
2023-01-09T19:58:54.096Z,7.88
2023-01-09T20:01:30.594Z,7.92
2023-01-09T20:04:07.568Z,7.93
2023-01-09T20:06:44.065Z,7.90
2023-01-09T20:09:19.502Z,7.91
2023-01-09T20:11:52.111Z,7.92
2023-01-09T20:14:25.161Z,7.92
2023-01-09T20:17:01.088Z,7.89
2023-01-09T20:19:33.841Z,7.92
2023-01-09T20:22:06.889Z,7.89
2023-01-09T20:24:39.755Z,7.90
2023-01-09T20:27:12.456Z,7.86
2023-01-09T20:29:45.602Z,7.91
2023-01-09T20:32:18.961Z,7.91
2023-01-09T20:34:51.432Z,7.93
2023-01-09T20:37:24.286Z,7.95
2023-01-09T20:39:57.125Z,7.92
2023-01-09T20:42:29.987Z,7.93
2023-01-09T20:45:02.587Z,7.91
2023-01-09T20:47:35.164Z,7.92
2023-01-09T20:50:10.132Z,7.93
2023-01-09T20:52:43.175Z,7.96
2023-01-09T20:55:15.886Z,7.97
2023-01-09T20:57:48.660Z,7.97
2023-01-09T21:00:23.734Z,8.01
2023-01-09T21:02:56.567Z,8.06
2023-01-09T21:05:29.229Z,8.02
2023-01-09T21:08:02.150Z,8.05
2023-01-09T21:10:34.829Z,8.08
2023-01-09T21:13:08.851Z,8.08
2023-01-09T21:15:41.845Z,8.10
2023-01-09T21:18:15.168Z,8.10
2023-01-09T21:20:49.906Z,8.12
2023-01-09T21:23:23.166Z,8.14
2023-01-09T21:25:55.917Z,8.19
2023-01-09T21:28:31.668Z,8.21
2023-01-09T21:31:04.370Z,8.20
2023-01-09T21:33:37.537Z,8.26
2023-01-09T21:36:11.607Z,8.17
2023-01-09T21:38:46.829Z,8.28
2023-01-09T21:41:39.864Z,8.31
2023-01-09T21:44:31.302Z,8.30
2023-01-09T21:47:06.044Z,8.32
2023-01-09T21:49:40.892Z,8.30
2023-01-09T21:52:14.878Z,8.27
2023-01-09T21:54:48.082Z,8.39
2023-01-09T21:57:20.915Z,8.37
2023-01-09T21:59:58.185Z,8.25
2023-01-09T22:02:51.242Z,8.36
2023-01-09T22:05:27.454Z,8.38
2023-01-09T22:08:00.027Z,8.35
2023-01-09T22:10:32.499Z,8.30
2023-01-09T22:13:16.081Z,8.34
2023-01-09T22:15:50.023Z,8.26
2023-01-09T22:18:23.447Z,8.38
2023-01-09T22:20:57.078Z,8.39
2023-01-09T22:23:30.176Z,8.40
2023-01-09T22:26:10.463Z,8.33
2023-01-09T22:28:43.665Z,8.28
2023-01-09T22:31:19.457Z,8.38
2023-01-09T22:33:57.627Z,8.38
2023-01-09T22:36:32.036Z,8.40
2023-01-09T22:39:04.849Z,8.37
2023-01-09T22:41:37.432Z,8.37
2023-01-09T22:44:10.888Z,8.36
2023-01-09T22:46:44.054Z,8.33
2023-01-09T22:49:16.612Z,8.33
2023-01-09T22:51:49.179Z,8.25
2023-01-09T22:54:22.020Z,8.30
2023-01-09T22:56:54.794Z,8.28
2023-01-09T22:59:28.798Z,8.27
2023-01-09T23:02:02.519Z,8.22
2023-01-09T23:04:35.595Z,8.19
2023-01-09T23:07:08.421Z,8.17
2023-01-09T23:09:41.302Z,8.16
2023-01-09T23:12:13.993Z,8.14
2023-01-09T23:14:46.549Z,7.99
2023-01-09T23:17:20.403Z,8.05
2023-01-09T23:19:52.881Z,8.01
2023-01-09T23:22:26.044Z,8.01
2023-01-09T23:24:58.993Z,8.02
2023-01-09T23:27:31.729Z,7.91
2023-01-09T23:30:04.138Z,8.00
2023-01-09T23:32:36.967Z,7.89
2023-01-09T23:35:10.467Z,7.95
2023-01-09T23:37:43.121Z,7.98
2023-01-09T23:40:15.911Z,8.01
2023-01-09T23:43:06.456Z,7.99
2023-01-09T23:45:39.991Z,7.98
2023-01-09T23:48:14.770Z,8.00
2023-01-09T23:50:50.978Z,7.93
2023-01-09T23:53:24.772Z,7.92
2023-01-09T23:55:57.285Z,7.82
2023-01-09T23:58:30.305Z,7.94
